Aérodrome :
LOGIN :

S'inscrire | Disclaimer

   EN    FR    IT 

 










Légende :    VFR   VFR Marginal   IFR   IFR Intensif   IFR Très Intensif
Visi : 
Plafond : 
>= 8 km
>= 3000ft
5 à 8 km
1000 à 3000 ft
1500m à 5 km
500 à 1000 ft
800 à 1500m
200 à 500 ft
< 800m
< 200 ft
Symboles :   Orages  Brouillard  Fortes neiges  Fortes précipitations  Vent > 20 kt
SIGMETs :   Divers  Orages  Givrage  Turbulence  Onde Orograph.  Cendres Volcan.






- Altitude de l'aérodrome : 276 ft


LYVR - Vršac International

DERNIER METAR :
  • 182000Z AUTO 16007G17KT CAVOK M01/M04 Q1026

METARs EXPIRÉS :
  • 181930Z AUTO 17006KT 130V270 CAVOK M01/M04 Q1026
  • 181900Z AUTO 15010KT CAVOK M00/M04 Q1026
  • 181830Z AUTO 14010KT 100V170 CAVOK 00/M04 Q1026
  • 181800Z AUTO 14012KT 060V170 CAVOK 01/M04 Q1026
  • 181730Z AUTO 14017KT CAVOK 00/M04 Q1025

TAF TAF LYVR
Valide du 18 à 18h jusqu'au 19 à 18h UTC


181700Z 1818/1918 14014KT 9999 SCT020 TX01/1912Z TNM04/1906Z
BECMG 1900/1902 14004KT 1500 BR BKN005
TEMPO 1903/1907 0600 FZFG
BECMG 1912/1914 3000 BKN010



MET'MAP, la Météo Aéronautique d'un coup d'oeil ! - Copyright ORBIFLY Décembre 2007 - Disclaimer

ORBIFLY MET'MAP TEAM :

Programmation & Développement : Alexandra Zaïnal
Sur une idée originale de : Baudouin d'Aumeries
Assistance à la programmation : Marc-Olivier Méhu
Soutien technique & logistique : Manuel Goepfert

Contact : metmap@orbifly.com




SOURCES & CREDITS :

   NOAA